Time;durP1;ratioP1;P1;durP2;ratioP2;P2;SDS_P1;SDS_P2;PMS_P1;PMS_P2;Temp;Humidity;BMP_temperature;BMP_pressure;BME280_temperature;BME280_humidity;BME280_pressure;Samples;Min_cycle;Max_cycle;Signal;HPM_P1;HPM_P2
2023/08/13 00:02:07;;;;;;;5.00;3.40;;;;;;;17.36;67.28;100302.58;130956;1253;109343;-79
2023/08/13 00:05:12;;;;;;;3.50;3.20;;;;;;;17.37;67.44;100307.67;131053;1256;106567;-78
2023/08/13 00:08:18;;;;;;;4.50;3.30;;;;;;;17.36;67.48;100310.08;131000;1251;107885;-78
2023/08/13 00:11:24;;;;;;;4.40;3.60;;;;;;;17.36;67.75;100308.66;131030;1254;106501;-78
2023/08/13 00:14:29;;;;;;;6.60;3.60;;;;;;;17.35;67.85;100311.86;131099;1251;107527;-78
2023/08/13 00:17:36;;;;;;;3.80;3.30;;;;;;;17.32;67.93;100310.59;131028;1253;107599;-78
2023/08/13 00:20:42;;;;;;;6.50;3.40;;;;;;;17.30;68.10;100311.15;131065;1253;106653;-78
2023/08/13 00:23:47;;;;;;;5.20;3.40;;;;;;;17.32;68.02;100306.90;131059;1253;107946;-78
2023/08/13 00:26:53;;;;;;;4.80;3.20;;;;;;;17.33;68.23;100303.67;131034;1254;107591;-78
2023/08/13 00:29:58;;;;;;;4.30;3.50;;;;;;;17.36;68.37;100295.10;131033;1256;106887;-78
2023/08/13 00:33:04;;;;;;;4.50;3.30;;;;;;;17.41;68.35;100285.34;131085;1257;108503;-78
2023/08/13 00:36:10;;;;;;;5.50;4.10;;;;;;;17.44;68.24;100283.00;130945;1256;107637;-80
2023/08/13 00:39:16;;;;;;;5.90;3.90;;;;;;;17.49;68.08;100284.20;131039;1254;107997;-78
2023/08/13 00:42:22;;;;;;;4.20;3.70;;;;;;;17.53;68.20;100294.21;131080;1264;107754;-78
2023/08/13 00:45:29;;;;;;;4.70;4.00;;;;;;;17.55;68.44;100295.28;131073;1256;107097;-78
2023/08/13 00:48:37;;;;;;;5.70;4.00;;;;;;;17.55;68.63;100295.58;131272;1251;106747;-78
2023/08/13 00:51:43;;;;;;;8.30;3.90;;;;;;;17.54;68.74;100286.85;130971;1256;107703;-78
2023/08/13 00:54:49;;;;;;;4.40;3.20;;;;;;;17.56;68.78;100277.35;131065;1253;108627;-77
2023/08/13 00:57:55;;;;;;;5.80;3.90;;;;;;;17.59;68.77;100279.78;131033;1264;107457;-77
2023/08/13 01:01:01;;;;;;;5.30;4.50;;;;;;;17.63;68.72;100275.60;131088;1254;107372;-78
2023/08/13 01:04:08;;;;;;;5.60;4.20;;;;;;;17.69;68.55;100270.95;131101;1256;106940;-77
2023/08/13 01:07:20;;;;;;;6.40;4.40;;;;;;;17.74;68.44;100274.13;131100;1256;107787;-78
2023/08/13 01:10:34;;;;;;;7.20;4.30;;;;;;;17.77;68.43;100276.89;131063;1260;106933;-78
2023/08/13 01:13:44;;;;;;;4.90;4.40;;;;;;;17.79;68.44;100277.06;131140;1253;107586;-78
2023/08/13 01:16:51;;;;;;;4.80;4.30;;;;;;;17.79;68.49;100278.81;131031;1257;106379;-77
2023/08/13 01:19:58;;;;;;;6.00;4.40;;;;;;;17.78;68.62;100274.57;131090;1253;107790;-77
2023/08/13 01:23:04;;;;;;;5.40;4.60;;;;;;;17.77;68.53;100272.98;131042;1258;108453;-77
2023/08/13 01:26:17;;;;;;;6.60;4.70;;;;;;;17.75;68.65;100267.83;131075;1263;107542;-79
2023/08/13 01:29:36;;;;;;;8.60;4.40;;;;;;;17.73;68.84;100270.06;131084;1257;108120;-78
2023/08/13 01:32:50;;;;;;;5.90;4.50;;;;;;;17.72;69.02;100260.84;131079;1253;107414;-78
2023/08/13 01:35:58;;;;;;;8.30;5.00;;;;;;;17.73;69.08;100257.18;131080;1263;107808;-78
2023/08/13 01:39:05;;;;;;;6.10;4.60;;;;;;;17.74;69.23;100255.33;131126;1257;107667;-77
2023/08/13 01:42:11;;;;;;;6.60;4.60;;;;;;;17.79;69.19;100247.21;131080;1253;108382;-78
2023/08/13 01:45:17;;;;;;;6.00;5.10;;;;;;;17.83;69.29;100250.98;131122;1255;107186;-78
2023/08/13 01:48:22;;;;;;;5.60;5.00;;;;;;;17.86;69.17;100241.41;131080;1257;106636;-77
2023/08/13 01:51:28;;;;;;;8.00;5.70;;;;;;;17.89;69.29;100236.06;131122;1264;107603;-77
2023/08/13 01:54:33;;;;;;;6.30;5.50;;;;;;;17.90;69.31;100235.13;131077;1253;107464;-77
2023/08/13 01:57:40;;;;;;;8.40;5.60;;;;;;;17.91;69.39;100239.89;131132;1258;106961;-78
2023/08/13 02:00:46;;;;;;;8.10;5.90;;;;;;;17.91;69.45;100231.80;131135;1260;106774;-78
2023/08/13 02:03:52;;;;;;;7.10;5.30;;;;;;;17.91;69.46;100230.52;131066;1250;106497;-77
2023/08/13 02:06:59;;;;;;;7.00;5.10;;;;;;;17.92;69.57;100227.90;131031;1252;106802;-78
2023/08/13 02:10:06;;;;;;;6.60;5.50;;;;;;;17.95;69.58;100232.14;130979;1254;106513;-77
2023/08/13 02:13:12;;;;;;;6.00;5.40;;;;;;;18.00;69.60;100236.36;131060;1254;107453;-78
2023/08/13 02:16:18;;;;;;;7.40;5.80;;;;;;;18.04;69.68;100237.00;131050;1254;107559;-78
2023/08/13 02:19:23;;;;;;;7.80;5.70;;;;;;;18.08;69.76;100231.61;130982;1264;107596;-78
2023/08/13 02:22:29;;;;;;;7.60;5.80;;;;;;;18.09;69.84;100233.48;131074;1264;108694;-78
2023/08/13 02:25:35;;;;;;;7.30;6.30;;;;;;;18.10;69.93;100232.95;131043;1261;108770;-78
2023/08/13 02:28:42;;;;;;;6.60;6.00;;;;;;;18.09;69.94;100231.20;131034;1256;106499;-78
2023/08/13 02:31:48;;;;;;;8.90;6.20;;;;;;;18.08;69.94;100234.47;131014;1256;107723;-78
2023/08/13 02:34:54;;;;;;;6.70;5.90;;;;;;;18.05;70.08;100229.16;131048;1263;107568;-78
2023/08/13 02:37:59;;;;;;;7.50;5.80;;;;;;;18.05;70.09;100228.23;131090;1253;107271;-78
2023/08/13 02:41:06;;;;;;;7.00;5.70;;;;;;;18.07;70.22;100230.40;131073;1258;107768;-78
2023/08/13 02:44:11;;;;;;;7.80;5.90;;;;;;;18.10;70.16;100230.58;131060;1260;106611;-78
2023/08/13 02:47:17;;;;;;;9.60;6.40;;;;;;;18.13;70.23;100235.56;131024;1260;107782;-78
2023/08/13 02:50:22;;;;;;;11.80;6.80;;;;;;;18.13;70.20;100235.20;130959;1253;107672;-78
2023/08/13 02:53:28;;;;;;;7.80;6.40;;;;;;;18.13;70.28;100238.65;130991;1257;109294;-78
2023/08/13 02:56:34;;;;;;;7.90;6.30;;;;;;;18.10;70.39;100237.44;130991;1251;108349;-78
2023/08/13 02:59:39;;;;;;;7.20;6.60;;;;;;;18.08;70.42;100236.23;131044;1264;107614;-78
2023/08/13 03:02:45;;;;;;;9.00;7.10;;;;;;;18.07;70.49;100239.61;130977;1264;107555;-77
2023/08/13 03:05:51;;;;;;;7.00;6.20;;;;;;;18.05;70.58;100233.68;131013;1261;107989;-78
2023/08/13 03:08:56;;;;;;;8.30;5.80;;;;;;;18.04;70.72;100231.14;131016;1257;107850;-78
2023/08/13 03:12:02;;;;;;;10.00;6.60;;;;;;;18.05;70.85;100230.61;131042;1263;107788;-78
2023/08/13 03:15:10;;;;;;;7.70;6.20;;;;;;;18.09;70.87;100233.89;131026;1258;106497;-78
2023/08/13 03:18:16;;;;;;;6.80;5.90;;;;;;;18.11;70.90;100231.53;130994;1254;106978;-78
2023/08/13 03:21:26;;;;;;;7.10;6.40;;;;;;;18.12;70.95;100232.63;131046;1265;106589;-78
2023/08/13 03:24:32;;;;;;;8.00;6.80;;;;;;;18.13;71.05;100234.45;131023;1256;106792;-78
2023/08/13 03:27:38;;;;;;;7.60;6.60;;;;;;;18.12;71.05;100241.42;131018;1257;107802;-78
2023/08/13 03:30:45;;;;;;;7.20;6.50;;;;;;;18.10;71.18;100233.57;130998;1263;107638;-78
2023/08/13 03:33:50;;;;;;;8.60;6.50;;;;;;;18.09;71.18;100234.10;131022;1256;107890;-78
2023/08/13 03:36:56;;;;;;;9.50;6.50;;;;;;;18.06;71.23;100233.93;131013;1263;107774;-77
2023/08/13 03:40:02;;;;;;;6.30;5.60;;;;;;;18.04;71.33;100236.91;130975;1256;107722;-78
2023/08/13 03:43:08;;;;;;;8.20;6.10;;;;;;;18.03;71.43;100238.73;131066;1254;107792;-78
2023/08/13 03:46:13;;;;;;;7.00;5.90;;;;;;;18.07;71.46;100242.65;130976;1253;107621;-77
2023/08/13 03:49:20;;;;;;;7.40;6.60;;;;;;;18.12;71.44;100243.59;131038;1253;107754;-77
2023/08/13 03:52:25;;;;;;;7.40;6.30;;;;;;;18.16;71.53;100238.86;131020;1264;107783;-78
2023/08/13 03:55:33;;;;;;;8.70;6.70;;;;;;;18.21;71.57;100235.60;131050;1254;107623;-78
2023/08/13 03:58:40;;;;;;;11.00;6.70;;;;;;;18.25;71.73;100237.52;131097;1257;107817;-78
2023/08/13 04:01:47;;;;;;;7.60;6.40;;;;;;;18.31;71.79;100235.50;130983;1257;106904;-79
2023/08/13 04:04:53;;;;;;;6.50;5.90;;;;;;;18.32;71.80;100233.01;130980;1254;107848;-77
2023/08/13 04:07:59;;;;;;;9.50;6.00;;;;;;;18.34;72.05;100227.52;131032;1256;107693;-79
2023/08/13 04:11:05;;;;;;;6.90;6.20;;;;;;;18.40;72.09;100227.08;131137;1257;106688;-76
2023/08/13 04:14:11;;;;;;;8.10;6.10;;;;;;;18.48;72.21;100224.17;130941;1256;106617;-78
2023/08/13 04:17:16;;;;;;;8.30;7.10;;;;;;;18.60;72.14;100221.95;131095;1258;107701;-78
2023/08/13 04:20:22;;;;;;;8.00;6.60;;;;;;;18.70;72.16;100226.13;131020;1256;107853;-78
2023/08/13 04:23:29;;;;;;;8.30;6.80;;;;;;;18.78;72.18;100225.63;131087;1251;108814;-78
2023/08/13 04:26:35;;;;;;;8.10;6.90;;;;;;;18.84;72.22;100222.81;131077;1251;107988;-79
2023/08/13 04:29:41;;;;;;;7.10;6.30;;;;;;;18.91;72.35;100223.48;131066;1254;108784;-78
2023/08/13 04:32:55;;;;;;;8.40;6.10;;;;;;;18.95;72.37;100221.33;131039;1256;107630;-78
2023/08/13 04:36:02;;;;;;;7.40;6.20;;;;;;;19.02;72.38;100222.52;131061;1258;106879;-78
2023/08/13 04:39:08;;;;;;;7.50;6.40;;;;;;;19.13;72.46;100219.48;131005;1257;107532;-78
2023/08/13 04:42:14;;;;;;;7.50;6.20;;;;;;;19.27;72.52;100220.03;131011;1264;106315;-78
2023/08/13 04:45:21;;;;;;;11.10;6.90;;;;;;;19.43;72.50;100223.25;131099;1257;106369;-78
2023/08/13 04:48:44;;;;;;;8.70;6.90;;;;;;;19.61;72.40;100223.94;130974;1255;107809;-76
2023/08/13 04:51:50;;;;;;;7.30;6.60;;;;;;;19.92;72.40;100223.69;131016;1254;106114;-75
2023/08/13 04:54:56;;;;;;;8.60;6.50;;;;;;;20.23;72.32;100223.70;131110;1254;107443;-75
2023/08/13 04:58:02;;;;;;;7.20;6.50;;;;;;;20.48;71.98;100221.23;130956;1254;107663;-75
2023/08/13 05:01:07;;;;;;;8.20;6.40;;;;;;;20.58;71.86;100220.13;131068;1249;107994;-75
2023/08/13 05:04:15;;;;;;;6.60;5.70;;;;;;;20.63;71.91;100223.05;130984;1263;106866;-75
2023/08/13 05:07:20;;;;;;;7.30;5.60;;;;;;;20.66;71.85;100225.52;131061;1253;106873;-75
2023/08/13 05:10:26;;;;;;;6.80;5.80;;;;;;;20.68;71.80;100235.30;131069;1264;108122;-73
2023/08/13 05:13:32;;;;;;;7.60;5.90;;;;;;;20.73;71.70;100230.27;131090;1254;107590;-74
2023/08/13 05:16:38;;;;;;;7.40;5.70;;;;;;;20.79;71.70;100230.93;131040;1257;106508;-75
2023/08/13 05:19:43;;;;;;;6.10;5.50;;;;;;;20.84;71.77;100234.56;131035;1256;107665;-74
2023/08/13 05:22:49;;;;;;;6.20;5.50;;;;;;;20.87;71.63;100228.80;131065;1263;105803;-74
2023/08/13 05:25:56;;;;;;;6.50;5.60;;;;;;;20.87;71.63;100228.15;131042;1257;106793;-74
2023/08/13 05:29:03;;;;;;;10.00;7.10;;;;;;;20.86;71.71;100227.58;131110;1254;106266;-74
2023/08/13 05:32:08;;;;;;;8.80;6.40;;;;;;;20.84;71.62;100226.77;130960;1251;108499;-75
2023/08/13 05:35:14;;;;;;;7.40;6.20;;;;;;;20.84;71.76;100232.55;131085;1256;107587;-75
2023/08/13 05:38:20;;;;;;;5.70;5.00;;;;;;;20.93;71.89;100232.91;131025;1251;108580;-73
2023/08/13 05:41:26;;;;;;;5.40;4.90;;;;;;;20.98;71.82;100229.31;131573;1251;108680;-75
2023/08/13 05:44:31;;;;;;;6.10;5.50;;;;;;;21.10;72.00;100230.45;131241;1261;107790;-75
2023/08/13 05:47:37;;;;;;;5.30;4.80;;;;;;;21.36;72.12;100231.70;131087;1255;108055;-75
2023/08/13 05:50:43;;;;;;;5.50;5.00;;;;;;;21.63;71.99;100232.81;131014;1255;107578;-76
2023/08/13 05:53:49;;;;;;;8.40;5.00;;;;;;;21.89;71.50;100236.86;131109;1250;107676;-75
2023/08/13 05:56:55;;;;;;;6.10;5.30;;;;;;;22.08;71.14;100231.80;131091;1251;106426;-75
2023/08/13 06:00:00;;;;;;;7.10;5.00;;;;;;;22.16;70.96;100238.10;131151;1254;106502;-75
2023/08/13 06:03:06;;;;;;;5.30;4.70;;;;;;;22.18;70.84;100235.27;131050;1251;106979;-74
2023/08/13 06:06:12;;;;;;;6.80;4.90;;;;;;;22.20;70.85;100238.16;131153;1254;105737;-80
2023/08/13 06:09:18;;;;;;;5.40;4.70;;;;;;;22.22;70.57;100238.59;131144;1254;108734;-76
2023/08/13 06:12:24;;;;;;;5.10;4.40;;;;;;;22.28;70.65;100240.09;131074;1255;106350;-75
2023/08/13 06:15:29;;;;;;;6.70;4.70;;;;;;;22.36;70.57;100240.71;131143;1253;107290;-76
2023/08/13 06:18:36;;;;;;;5.10;4.50;;;;;;;22.44;70.46;100240.83;131189;1251;108544;-76
2023/08/13 06:21:41;;;;;;;7.60;4.60;;;;;;;22.48;70.43;100238.86;131131;1251;108405;-75
2023/08/13 06:24:47;;;;;;;5.00;4.30;;;;;;;22.50;70.20;100242.63;131097;1251;106817;-74
2023/08/13 06:27:53;;;;;;;5.80;4.30;;;;;;;22.52;70.19;100240.95;131131;1261;107695;-74
2023/08/13 06:30:58;;;;;;;7.20;5.00;;;;;;;22.61;70.16;100242.79;131090;1254;108569;-74
2023/08/13 06:34:04;;;;;;;4.50;4.10;;;;;;;22.68;70.04;100243.60;131112;1251;108399;-74
2023/08/13 06:37:10;;;;;;;5.90;4.00;;;;;;;22.77;70.11;100242.92;131046;1251;107739;-74
2023/08/13 06:40:16;;;;;;;4.80;4.40;;;;;;;22.85;69.65;100239.21;131091;1253;107634;-76
2023/08/13 06:43:22;;;;;;;4.80;4.30;;;;;;;22.95;69.36;100242.29;131157;1253;107719;-75
2023/08/13 06:46:27;;;;;;;6.20;4.20;;;;;;;23.05;69.29;100241.38;131057;1254;106993;-75
2023/08/13 06:49:35;;;;;;;5.20;4.20;;;;;;;23.18;69.06;100246.73;131096;1251;106987;-75
2023/08/13 06:52:41;;;;;;;4.90;4.40;;;;;;;23.36;69.06;100247.29;131129;1252;108209;-73
2023/08/13 06:55:46;;;;;;;5.00;4.10;;;;;;;23.50;68.42;100247.16;131222;1251;107257;-75
2023/08/13 06:58:52;;;;;;;5.60;4.60;;;;;;;23.48;68.14;100251.21;131134;1253;107825;-74
2023/08/13 07:01:58;;;;;;;7.30;4.80;;;;;;;23.41;67.99;100252.35;131122;1254;107632;-76
2023/08/13 07:05:04;;;;;;;4.70;4.30;;;;;;;23.36;68.38;100253.78;131173;1254;107240;-73
2023/08/13 07:08:12;;;;;;;5.20;4.30;;;;;;;23.39;68.13;100262.83;131053;1257;108645;-75
2023/08/13 07:11:18;;;;;;;4.50;3.70;;;;;;;23.31;68.14;100259.71;131077;1251;108511;-76
2023/08/13 07:14:23;;;;;;;5.50;4.60;;;;;;;23.20;67.69;100263.86;131128;1252;108628;-76
2023/08/13 07:17:29;;;;;;;5.00;4.50;;;;;;;23.16;68.19;100261.27;131023;1254;107795;-74
2023/08/13 07:20:35;;;;;;;7.70;4.70;;;;;;;23.20;68.07;100258.52;131115;1251;107741;-74
2023/08/13 07:23:41;;;;;;;5.00;4.50;;;;;;;23.31;68.22;100257.41;131014;1254;108714;-76
2023/08/13 07:26:47;;;;;;;5.50;4.20;;;;;;;23.42;68.19;100257.95;131081;1254;107922;-74
2023/08/13 07:29:54;;;;;;;5.20;4.50;;;;;;;23.57;68.07;100261.85;131106;1253;107712;-74
2023/08/13 07:33:00;;;;;;;6.70;4.90;;;;;;;23.71;67.43;100262.48;131121;1254;107815;-73
2023/08/13 07:36:07;;;;;;;5.10;4.60;;;;;;;23.83;67.45;100259.11;131080;1255;108497;-73
2023/08/13 07:39:12;;;;;;;6.20;4.90;;;;;;;23.92;67.38;100258.89;131143;1253;107931;-72
2023/08/13 07:42:18;;;;;;;5.60;4.70;;;;;;;24.02;66.61;100263.87;131092;1251;106581;-73
2023/08/13 07:45:24;;;;;;;5.00;4.50;;;;;;;24.16;67.22;100259.02;131544;1250;107686;-73
2023/08/13 07:48:30;;;;;;;6.20;4.50;;;;;;;24.25;67.16;100261.92;131250;1254;107807;-73
2023/08/13 07:51:35;;;;;;;4.90;4.40;;;;;;;24.30;66.61;100260.70;131436;1251;107862;-73
2023/08/13 07:54:41;;;;;;;5.50;4.70;;;;;;;24.36;66.53;100266.39;131215;1251;108531;-74
2023/08/13 07:57:47;;;;;;;6.10;5.40;;;;;;;24.46;66.78;100265.73;131035;1254;108284;-74
2023/08/13 08:00:53;;;;;;;5.30;4.60;;;;;;;24.58;65.94;100264.95;131132;1254;107370;-74
2023/08/13 08:03:58;;;;;;;6.90;5.30;;;;;;;24.57;66.08;100266.25;131047;1250;107237;-73
2023/08/13 08:07:04;;;;;;;6.20;5.10;;;;;;;24.63;65.79;100266.20;131062;1253;106922;-74
2023/08/13 08:10:10;;;;;;;7.60;5.20;;;;;;;24.79;66.48;100264.61;131226;1254;107747;-73
2023/08/13 08:13:16;;;;;;;6.70;5.00;;;;;;;24.93;66.01;100274.50;131084;1253;108383;-75
2023/08/13 08:16:21;;;;;;;5.80;5.30;;;;;;;24.96;65.51;100278.05;131104;1264;107856;-73
2023/08/13 08:19:27;;;;;;;7.20;5.40;;;;;;;24.98;65.48;100279.39;131097;1254;107511;-74
2023/08/13 08:22:32;;;;;;;6.00;5.40;;;;;;;24.97;65.43;100284.79;131171;1253;107732;-73
2023/08/13 08:25:38;;;;;;;5.40;4.90;;;;;;;25.08;65.21;100283.70;131072;1251;107934;-73
2023/08/13 08:28:44;;;;;;;7.60;5.20;;;;;;;25.20;64.09;100290.01;131132;1255;106851;-72
2023/08/13 08:31:49;;;;;;;5.30;4.80;;;;;;;25.25;64.16;100287.48;131128;1250;108513;-74
2023/08/13 08:34:55;;;;;;;5.20;4.70;;;;;;;25.25;63.96;100286.79;131137;1254;107554;-73
2023/08/13 08:38:00;;;;;;;5.60;4.90;;;;;;;25.31;64.23;100284.04;131043;1253;108662;-73
2023/08/13 08:41:06;;;;;;;5.30;4.80;;;;;;;25.50;64.40;100287.70;131025;1254;108358;-73
2023/08/13 08:44:19;;;;;;;7.20;5.20;;;;;;;25.75;63.51;100284.55;131303;1252;106996;-75
2023/08/13 08:47:25;;;;;;;5.40;4.90;;;;;;;25.96;62.52;100279.36;131074;1254;106555;-75
2023/08/13 08:50:31;;;;;;;6.00;4.80;;;;;;;25.96;62.99;100285.07;131131;1254;107856;-75
2023/08/13 08:53:38;;;;;;;5.30;4.80;;;;;;;25.96;61.80;100287.14;131135;1254;107591;-80
2023/08/13 08:56:44;;;;;;;5.70;5.10;;;;;;;26.07;61.89;100283.06;131248;1253;107185;-75
2023/08/13 08:59:49;;;;;;;5.50;5.00;;;;;;;26.20;62.00;100278.28;131205;1254;106174;-76
2023/08/13 09:02:55;;;;;;;5.90;4.90;;;;;;;26.26;60.98;100279.30;131059;1254;105805;-76
2023/08/13 09:06:00;;;;;;;5.00;4.60;;;;;;;26.44;61.81;100272.25;131089;1254;107769;-76
2023/08/13 09:09:07;;;;;;;5.50;5.00;;;;;;;26.66;61.28;100266.80;131073;1254;106818;-76
2023/08/13 09:12:12;;;;;;;5.10;4.60;;;;;;;26.76;59.75;100270.83;131260;1254;107562;-76
2023/08/13 09:15:18;;;;;;;4.70;4.20;;;;;;;26.81;60.83;100270.98;131216;1251;106921;-76
2023/08/13 09:18:24;;;;;;;4.70;4.30;;;;;;;26.84;61.01;100266.36;131017;1250;108472;-75
2023/08/13 09:21:29;;;;;;;4.50;4.10;;;;;;;26.79;60.98;100266.80;131194;1250;107571;-76
2023/08/13 09:24:41;;;;;;;4.60;3.90;;;;;;;26.81;60.99;100267.16;131351;1253;107713;-77
2023/08/13 09:27:47;;;;;;;4.70;3.50;;;;;;;26.87;60.03;100261.95;131290;1250;107341;-77
2023/08/13 09:30:53;;;;;;;3.50;3.20;;;;;;;26.94;60.01;100261.19;132845;1250;108591;-76
2023/08/13 09:33:58;;;;;;;3.10;2.90;;;;;;;26.88;60.23;100266.72;131467;1251;107796;-75
2023/08/13 09:37:04;;;;;;;4.00;3.50;;;;;;;26.82;59.43;100269.63;131264;1253;108015;-76
2023/08/13 09:40:11;;;;;;;3.90;3.40;;;;;;;26.70;60.23;100273.08;131150;1253;107952;-76
2023/08/13 09:43:21;;;;;;;3.70;3.20;;;;;;;26.74;59.60;100270.53;131548;1254;106811;-77
2023/08/13 09:46:29;;;;;;;3.60;3.30;;;;;;;26.86;59.23;100271.58;131146;1251;106983;-76
2023/08/13 09:49:35;;;;;;;3.50;3.20;;;;;;;27.00;58.96;100267.95;131343;1251;109955;-77
2023/08/13 09:52:47;;;;;;;3.80;3.40;;;;;;;27.10;57.55;100272.64;131952;1251;108393;-76
2023/08/13 09:55:56;;;;;;;3.90;3.20;;;;;;;27.06;58.19;100275.08;131165;1253;107782;-76
2023/08/13 09:59:02;;;;;;;3.80;3.50;;;;;;;27.03;58.78;100277.02;131077;1254;108737;-76
2023/08/13 10:02:10;;;;;;;3.90;3.60;;;;;;;26.98;58.15;100283.98;131075;1253;107578;-78
2023/08/13 10:05:18;;;;;;;4.00;3.70;;;;;;;26.88;58.55;100280.24;131100;1253;106726;-77
2023/08/13 10:08:23;;;;;;;4.80;4.10;;;;;;;26.88;58.81;100284.46;131081;1253;107743;-77
2023/08/13 10:11:29;;;;;;;4.00;3.60;;;;;;;26.94;59.19;100285.06;131368;1250;107883;-76
2023/08/13 10:14:37;;;;;;;4.30;3.90;;;;;;;26.96;59.07;100281.19;131445;1253;108547;-77
2023/08/13 10:17:45;;;;;;;4.20;3.90;;;;;;;26.98;59.13;100280.61;131233;1251;108017;-76
2023/08/13 10:20:50;;;;;;;4.40;3.70;;;;;;;27.05;59.45;100279.55;131198;1253;108071;-76
2023/08/13 10:24:02;;;;;;;5.00;3.90;;;;;;;27.13;59.31;100278.52;131165;1265;107984;-76
2023/08/13 10:27:06;;;;;;;;;;;;;;;27.11;59.01;100281.14;131103;1253;107643;-77
2023/08/13 10:30:14;;;;;;;3.90;3.60;;;;;;;26.95;59.20;100280.23;131100;1253;107740;-77
2023/08/13 10:33:21;;;;;;;4.30;3.60;;;;;;;26.90;59.43;100279.23;131090;1250;108173;-76
2023/08/13 10:36:44;;;;;;;3.70;3.40;;;;;;;26.95;59.28;100280.52;131040;1254;106879;-75
2023/08/13 10:40:08;;;;;;;4.60;3.80;;;;;;;27.07;59.17;100283.14;131339;1251;108340;-75
2023/08/13 10:43:22;;;;;;;3.60;3.30;;;;;;;27.09;58.79;100280.90;131589;1253;107605;-76
2023/08/13 10:46:43;;;;;;;3.70;3.40;;;;;;;27.15;59.00;100282.75;131552;1254;107692;-77
2023/08/13 10:49:50;;;;;;;3.60;3.30;;;;;;;27.36;58.59;100277.02;131300;1253;107732;-76
2023/08/13 10:53:01;;;;;;;3.30;3.00;;;;;;;27.50;58.52;100273.20;131066;1253;107698;-76
2023/08/13 10:56:07;;;;;;;3.50;3.20;;;;;;;27.68;57.12;100273.58;131110;1253;108014;-76
2023/08/13 10:59:13;;;;;;;3.60;3.20;;;;;;;27.76;58.08;100271.59;131185;1250;107462;-77
2023/08/13 11:02:21;;;;;;;3.40;3.10;;;;;;;27.83;57.82;100268.88;131165;1250;106552;-77
2023/08/13 11:05:27;;;;;;;3.20;2.90;;;;;;;27.88;58.14;100269.67;131209;1254;107778;-77
2023/08/13 11:08:33;;;;;;;3.60;3.30;;;;;;;28.06;57.58;100270.32;131279;1254;107164;-77
2023/08/13 11:11:39;;;;;;;3.60;3.10;;;;;;;28.22;56.40;100279.14;131115;1254;107828;-77
2023/08/13 11:14:45;;;;;;;3.30;3.00;;;;;;;28.28;56.58;100279.48;131135;1253;107570;-77
2023/08/13 11:17:51;;;;;;;3.60;3.10;;;;;;;28.49;56.81;100283.10;131056;1254;106789;-77
2023/08/13 11:20:57;;;;;;;4.00;3.10;;;;;;;28.82;57.15;100275.98;131102;1253;106935;-77
2023/08/13 11:24:05;;;;;;;4.10;3.20;;;;;;;28.97;55.68;100276.36;131153;1253;107922;-76
2023/08/13 11:27:11;;;;;;;4.00;3.10;;;;;;;28.95;56.00;100274.98;131206;1253;108655;-76
2023/08/13 11:30:16;;;;;;;3.50;3.10;;;;;;;28.96;53.94;100278.63;131188;1249;108378;-78
2023/08/13 11:33:22;;;;;;;4.20;3.10;;;;;;;28.86;53.83;100277.90;131302;1250;106477;-76
2023/08/13 11:36:28;;;;;;;4.10;3.00;;;;;;;28.77;54.33;100278.83;131068;1253;107727;-76
2023/08/13 11:39:34;;;;;;;3.00;2.70;;;;;;;28.67;54.94;100276.41;131287;1251;107686;-76
2023/08/13 11:42:55;;;;;;;4.10;2.70;;;;;;;28.54;54.70;100277.48;131036;1253;106931;-76
2023/08/13 11:46:01;;;;;;;4.40;3.00;;;;;;;28.44;54.04;100275.29;131112;1251;108499;-76
2023/08/13 11:49:15;;;;;;;3.30;3.00;;;;;;;28.39;54.54;100273.82;131147;1253;107875;-76
2023/08/13 11:52:22;;;;;;;3.00;2.60;;;;;;;28.51;54.32;100275.45;131227;1253;108727;-76
2023/08/13 11:55:28;;;;;;;2.80;2.60;;;;;;;28.49;54.41;100272.61;131133;1253;108403;-75
2023/08/13 11:58:33;;;;;;;2.80;2.60;;;;;;;28.56;54.52;100268.88;131119;1253;107435;-75
2023/08/13 12:01:40;;;;;;;2.90;2.70;;;;;;;28.62;54.78;100272.34;131125;1250;107565;-76
2023/08/13 12:04:49;;;;;;;3.50;3.20;;;;;;;28.72;54.63;100275.31;131186;1253;107696;-77
2023/08/13 12:07:57;;;;;;;4.00;3.60;;;;;;;28.80;54.26;100274.05;131160;1251;107501;-77
2023/08/13 12:11:03;;;;;;;6.10;3.30;;;;;;;28.57;54.05;100280.56;131111;1251;107567;-76
2023/08/13 12:14:13;;;;;;;3.60;3.30;;;;;;;28.32;54.74;100282.41;131176;1253;107419;-77
2023/08/13 12:17:18;;;;;;;3.90;3.30;;;;;;;28.16;55.21;100283.79;131096;1251;108135;-76
2023/08/13 12:20:24;;;;;;;4.10;3.80;;;;;;;28.07;55.60;100282.60;131071;1251;106446;-77
2023/08/13 12:23:30;;;;;;;5.20;3.50;;;;;;;27.98;55.27;100276.10;131046;1255;106970;-76
2023/08/13 12:26:38;;;;;;;5.40;3.20;;;;;;;27.88;55.42;100280.64;131077;1251;108488;-76
2023/08/13 12:29:44;;;;;;;3.70;3.40;;;;;;;27.89;55.81;100280.28;132488;1249;107206;-78
2023/08/13 12:32:50;;;;;;;4.10;3.70;;;;;;;27.94;56.23;100286.56;131231;1250;107063;-76
2023/08/13 12:35:56;;;;;;;5.60;3.80;;;;;;;28.00;55.74;100282.75;131115;1251;108378;-75
2023/08/13 12:39:01;;;;;;;3.90;3.60;;;;;;;27.96;55.97;100282.02;131110;1253;107286;-75
2023/08/13 12:42:07;;;;;;;4.40;3.70;;;;;;;27.91;55.91;100274.86;131392;1253;108304;-78
2023/08/13 12:45:13;;;;;;;4.10;3.70;;;;;;;27.86;56.16;100277.22;132467;1250;108729;-77
2023/08/13 12:48:18;;;;;;;4.00;3.60;;;;;;;27.83;56.20;100279.80;131488;1250;110299;-77
2023/08/13 12:51:24;;;;;;;4.20;3.40;;;;;;;27.86;56.55;100279.86;131828;1250;146931;-77
2023/08/13 12:54:30;;;;;;;3.70;3.40;;;;;;;27.90;56.29;100282.69;131101;1254;107793;-76
2023/08/13 12:57:35;;;;;;;3.30;3.00;;;;;;;28.04;56.14;100285.28;131017;1251;106680;-76
2023/08/13 13:00:41;;;;;;;3.10;2.80;;;;;;;28.22;55.60;100282.71;131174;1253;107500;-76
2023/08/13 13:03:46;;;;;;;3.50;3.20;;;;;;;28.25;55.14;100273.39;131003;1254;107815;-77
2023/08/13 13:06:52;;;;;;;3.30;3.00;;;;;;;28.22;55.20;100273.11;131134;1253;107014;-76
2023/08/13 13:09:58;;;;;;;3.30;3.00;;;;;;;28.26;55.71;100271.69;131135;1251;107541;-77
2023/08/13 13:13:04;;;;;;;3.80;3.20;;;;;;;28.30;55.56;100272.85;131094;1254;107924;-77
2023/08/13 13:16:09;;;;;;;3.50;3.20;;;;;;;28.31;55.15;100271.66;131134;1256;105667;-76
2023/08/13 13:19:15;;;;;;;3.40;3.10;;;;;;;28.37;55.58;100265.36;131039;1254;106903;-76
2023/08/13 13:22:21;;;;;;;4.10;3.40;;;;;;;28.48;55.70;100267.40;131081;1253;107604;-76
2023/08/13 13:25:26;;;;;;;5.80;3.10;;;;;;;28.58;55.17;100275.23;131163;1251;107411;-77
2023/08/13 13:28:32;;;;;;;3.90;3.20;;;;;;;28.64;54.96;100270.64;131081;1266;108135;-77
2023/08/13 13:31:37;;;;;;;3.60;3.20;;;;;;;28.69;54.19;100273.89;131079;1251;106882;-76
2023/08/13 13:34:43;;;;;;;3.20;2.90;;;;;;;28.64;53.59;100275.95;131134;1254;107768;-76
2023/08/13 13:37:49;;;;;;;3.60;3.30;;;;;;;28.53;54.32;100273.31;131034;1253;107574;-76
2023/08/13 13:40:54;;;;;;;3.40;3.10;;;;;;;28.50;54.64;100272.84;131046;1255;107857;-76
2023/08/13 13:44:00;;;;;;;4.10;3.20;;;;;;;28.54;54.06;100276.27;131086;1253;108768;-77
2023/08/13 13:47:06;;;;;;;3.20;2.90;;;;;;;28.65;54.00;100272.52;131045;1253;109103;-77
2023/08/13 13:50:12;;;;;;;4.20;3.20;;;;;;;28.69;53.69;100274.75;131021;1255;108397;-77
2023/08/13 13:53:17;;;;;;;3.60;3.30;;;;;;;28.61;53.94;100274.86;131053;1253;107999;-77
2023/08/13 13:56:23;;;;;;;3.90;3.30;;;;;;;28.66;53.87;100274.32;131059;1253;108471;-77
2023/08/13 13:59:28;;;;;;;4.70;3.00;;;;;;;28.85;54.17;100269.00;131094;1253;106682;-77
2023/08/13 14:02:34;;;;;;;3.50;3.20;;;;;;;29.03;53.40;100267.67;131131;1252;108821;-77
2023/08/13 14:05:40;;;;;;;4.40;3.10;;;;;;;29.13;53.65;100274.28;131061;1253;107290;-77
2023/08/13 14:08:45;;;;;;;3.40;3.10;;;;;;;29.15;52.78;100269.19;131080;1256;107832;-76